createdAt,value
2022-12-01T00:01:20.937Z,93.07
2022-12-01T00:03:48.240Z,91.87
2022-12-01T00:06:17.990Z,90.53
2022-12-01T00:09:06.244Z,79.70
2022-12-01T00:11:34.631Z,87.27
2022-12-01T00:14:01.831Z,73.23
2022-12-01T00:16:28.721Z,69.73
2022-12-01T00:18:55.665Z,73.13
2022-12-01T00:21:24.569Z,79.43
2022-12-01T00:23:53.714Z,72.53
2022-12-01T00:26:21.846Z,78.80
2022-12-01T00:28:52.704Z,67.50
2022-12-01T00:31:20.534Z,68.10
2022-12-01T00:33:47.753Z,70.50
2022-12-01T00:36:14.701Z,64.53
2022-12-01T00:38:41.609Z,65.57
2022-12-01T00:41:08.815Z,67.27
2022-12-01T00:43:35.762Z,69.30
2022-12-01T00:46:02.813Z,71.97
2022-12-01T00:48:29.895Z,77.50
2022-12-01T00:50:57.099Z,70.43
2022-12-01T00:53:24.771Z,85.00
2022-12-01T00:55:54.097Z,81.40
2022-12-01T00:58:22.044Z,72.80
2022-12-01T01:00:49.523Z,70.57
2022-12-01T01:03:16.429Z,69.20
2022-12-01T01:05:44.222Z,63.60
2022-12-01T01:08:13.267Z,71.27
2022-12-01T01:10:41.626Z,64.37
2022-12-01T01:13:09.165Z,76.17
2022-12-01T01:15:36.481Z,77.27
2022-12-01T01:18:04.183Z,62.33
2022-12-01T01:20:32.305Z,64.13
2022-12-01T01:22:59.634Z,66.17
2022-12-01T01:25:26.726Z,71.90
2022-12-01T01:27:53.908Z,62.27
2022-12-01T01:30:22.088Z,71.30
2022-12-01T01:32:49.287Z,66.97
2022-12-01T01:35:16.200Z,61.77
2022-12-01T01:37:43.093Z,70.20
2022-12-01T01:40:10.796Z,73.43
2022-12-01T01:42:37.690Z,69.13
2022-12-01T01:45:05.462Z,66.60
2022-12-01T01:47:38.229Z,71.73
2022-12-01T01:50:12.951Z,63.90
2022-12-01T01:52:45.149Z,70.00
2022-12-01T01:55:12.957Z,62.27
2022-12-01T01:57:40.774Z,57.63
2022-12-01T02:00:14.113Z,63.57
2022-12-01T02:02:45.902Z,70.03
2022-12-01T02:05:41.283Z,77.40
2022-12-01T02:08:12.530Z,75.50
2022-12-01T02:11:29.522Z,74.00
2022-12-01T02:14:15.296Z,78.10
2022-12-01T02:16:59.504Z,72.50
2022-12-01T02:19:43.868Z,88.33
2022-12-01T02:22:58.603Z,81.90
2022-12-01T02:26:00.976Z,72.70
2022-12-01T02:29:06.574Z,67.73
2022-12-01T02:32:10.224Z,71.93
2022-12-01T02:34:58.853Z,66.77
2022-12-01T02:37:31.957Z,63.87
2022-12-01T02:40:50.974Z,62.43
2022-12-01T02:43:32.260Z,68.10
2022-12-01T02:46:52.830Z,72.97
2022-12-01T02:49:26.852Z,64.70
2022-12-01T02:51:55.355Z,68.23
2022-12-01T02:54:23.768Z,75.97
2022-12-01T02:56:53.042Z,78.33
2022-12-01T02:59:20.016Z,77.33
2022-12-01T03:02:15.537Z,70.73
2022-12-01T03:04:46.727Z,73.70
2022-12-01T03:07:42.747Z,74.77
2022-12-01T03:13:55.339Z,72.63
2022-12-01T03:16:50.288Z,58.90
2022-12-01T03:19:33.993Z,71.50
2022-12-01T03:22:17.368Z,66.70
2022-12-01T03:24:47.589Z,61.70
2022-12-01T03:27:18.717Z,69.17
2022-12-01T03:29:50.668Z,67.50
2022-12-01T03:32:31.992Z,63.43
2022-12-01T03:35:10.884Z,74.23
2022-12-01T03:37:56.370Z,69.40
2022-12-01T03:40:27.379Z,76.63
2022-12-01T03:43:11.273Z,69.87
2022-12-01T03:46:16.000Z,67.43
2022-12-01T03:48:43.360Z,71.97
2022-12-01T03:51:34.967Z,74.17
2022-12-01T03:54:19.500Z,73.03
2022-12-01T03:57:00.444Z,79.10
2022-12-01T03:59:29.155Z,67.27
2022-12-01T04:01:57.390Z,75.57
2022-12-01T04:04:24.453Z,68.87
2022-12-01T04:06:51.423Z,67.23
2022-12-01T04:09:18.540Z,71.33
2022-12-01T04:12:04.041Z,67.00
2022-12-01T04:14:30.987Z,69.07
2022-12-01T04:16:57.888Z,61.80
2022-12-01T04:19:24.926Z,62.60
2022-12-01T04:21:51.798Z,59.97
2022-12-01T04:24:18.790Z,62.20
2022-12-01T04:26:46.223Z,65.87
2022-12-01T04:29:13.684Z,52.17
2022-12-01T04:31:41.198Z,61.10
2022-12-01T04:34:09.975Z,58.57
2022-12-01T04:36:36.903Z,56.03
2022-12-01T04:39:04.436Z,45.80
2022-12-01T04:41:31.513Z,50.63
2022-12-01T04:43:58.529Z,52.10
2022-12-01T04:46:26.086Z,44.17
2022-12-01T04:48:53.395Z,43.30
2022-12-01T04:51:21.468Z,53.60
2022-12-01T04:53:49.900Z,44.87
2022-12-01T04:56:16.937Z,56.23
2022-12-01T04:58:44.292Z,55.10
2022-12-01T05:01:13.571Z,56.57
2022-12-01T05:03:42.139Z,45.63
2022-12-01T05:06:13.019Z,58.83
2022-12-01T05:08:40.185Z,66.13
2022-12-01T05:11:08.580Z,51.83
2022-12-01T05:13:37.255Z,53.07
2022-12-01T05:16:09.642Z,70.27
2022-12-01T05:18:36.960Z,53.00
2022-12-01T05:21:05.749Z,62.93
2022-12-01T05:23:35.711Z,54.80
2022-12-01T05:26:05.128Z,56.73
2022-12-01T05:28:32.350Z,57.20
2022-12-01T05:30:59.565Z,63.10
2022-12-01T05:33:27.629Z,54.33
2022-12-01T05:35:54.986Z,56.93
2022-12-01T05:38:22.174Z,58.10
2022-12-01T05:40:54.104Z,52.57
2022-12-01T05:43:28.355Z,44.63
2022-12-01T05:45:56.342Z,57.07
2022-12-01T05:48:23.426Z,52.27
2022-12-01T05:50:50.331Z,50.50
2022-12-01T05:53:18.146Z,52.60
2022-12-01T05:55:45.397Z,50.30
2022-12-01T05:58:12.810Z,54.17
2022-12-01T06:00:45.795Z,51.07
2022-12-01T06:03:13.907Z,49.27
2022-12-01T06:05:41.076Z,50.73
2022-12-01T06:08:08.072Z,49.30
2022-12-01T06:10:35.135Z,47.90
2022-12-01T06:13:04.453Z,50.87
2022-12-01T06:15:31.443Z,45.33
2022-12-01T06:18:01.686Z,51.90
2022-12-01T06:20:28.594Z,55.03
2022-12-01T06:22:55.712Z,48.67
2022-12-01T06:25:22.756Z,59.77
2022-12-01T06:27:49.629Z,49.03
2022-12-01T06:30:16.731Z,49.80
2022-12-01T06:32:46.682Z,47.93
2022-12-01T06:35:13.619Z,47.50
2022-12-01T06:37:40.467Z,54.87
2022-12-01T06:40:08.222Z,60.50
2022-12-01T06:42:35.155Z,56.37
2022-12-01T06:45:02.103Z,61.00
2022-12-01T06:47:29.043Z,57.87
2022-12-01T06:49:55.918Z,61.10
2022-12-01T06:52:22.826Z,59.70
2022-12-01T06:54:49.872Z,54.83
2022-12-01T06:57:17.184Z,59.93
2022-12-01T06:59:44.453Z,49.43
2022-12-01T07:02:12.126Z,51.40
2022-12-01T07:04:39.104Z,49.73
2022-12-01T07:07:06.431Z,48.80
2022-12-01T07:09:33.553Z,53.30
2022-12-01T07:12:00.492Z,48.70
2022-12-01T07:14:28.056Z,53.97
2022-12-01T07:16:55.098Z,45.27
2022-12-01T07:19:22.289Z,47.97
2022-12-01T07:21:49.243Z,47.23
2022-12-01T07:24:16.569Z,51.80
2022-12-01T07:26:44.202Z,57.57
2022-12-01T07:29:11.778Z,46.10
2022-12-01T07:31:39.190Z,46.77
2022-12-01T07:34:06.513Z,49.10
2022-12-01T07:36:33.634Z,47.77
2022-12-01T07:39:04.854Z,49.37
2022-12-01T07:41:31.745Z,49.43
2022-12-01T07:43:58.658Z,58.13
2022-12-01T07:46:27.217Z,52.70
2022-12-01T07:48:55.463Z,55.00
2022-12-01T07:51:23.875Z,54.53
2022-12-01T07:53:52.185Z,59.83
2022-12-01T07:56:20.382Z,61.30
2022-12-01T07:58:47.476Z,52.37
2022-12-01T08:01:20.520Z,64.03
2022-12-01T08:03:55.590Z,48.80
2022-12-01T08:06:23.902Z,62.53
2022-12-01T08:08:51.515Z,57.10
2022-12-01T08:11:26.682Z,65.20
2022-12-01T08:13:54.031Z,60.70
2022-12-01T08:16:24.306Z,61.10
2022-12-01T08:18:51.539Z,63.33
2022-12-01T08:21:20.694Z,63.10
2022-12-01T08:23:48.416Z,66.97
2022-12-01T08:26:18.300Z,68.90
2022-12-01T08:28:46.196Z,72.57
2022-12-01T08:31:31.552Z,74.60
2022-12-01T08:33:59.127Z,71.67
2022-12-01T08:36:26.555Z,74.87
2022-12-01T08:38:55.547Z,75.27
2022-12-01T08:41:24.419Z,77.90
2022-12-01T08:43:59.630Z,59.33
2022-12-01T08:46:34.250Z,64.20
2022-12-01T08:49:02.555Z,72.90
2022-12-01T08:51:29.859Z,79.67
2022-12-01T08:53:58.082Z,80.60
2022-12-01T08:56:31.987Z,83.77
2022-12-01T08:58:58.950Z,85.33
2022-12-01T09:01:26.674Z,87.70
2022-12-01T09:04:06.184Z,85.47
2022-12-01T09:06:37.665Z,86.70
2022-12-01T09:09:05.036Z,84.10
2022-12-01T09:11:32.190Z,88.43
2022-12-01T09:13:59.968Z,92.57
2022-12-01T09:16:27.122Z,88.13
2022-12-01T09:18:55.262Z,93.23
2022-12-01T09:21:25.035Z,91.53
2022-12-01T09:23:52.033Z,86.83
2022-12-01T09:26:20.048Z,93.20
2022-12-01T09:28:48.699Z,89.30
2022-12-01T09:31:18.492Z,80.90
2022-12-01T09:33:45.770Z,84.20
2022-12-01T09:36:12.708Z,84.13
2022-12-01T09:38:40.104Z,91.50
2022-12-01T09:41:19.321Z,92.37
2022-12-01T09:44:05.891Z,83.47
2022-12-01T09:46:38.200Z,84.73
2022-12-01T09:49:11.590Z,89.60
2022-12-01T09:51:38.499Z,85.93
2022-12-01T09:54:10.485Z,79.43
2022-12-01T09:56:53.102Z,88.03
2022-12-01T09:59:32.120Z,92.17
2022-12-01T10:02:04.239Z,84.50
2022-12-01T10:04:36.397Z,87.33
2022-12-01T10:07:29.710Z,77.13
2022-12-01T10:10:39.461Z,90.23
2022-12-01T10:13:27.094Z,82.60
2022-12-01T10:16:14.198Z,84.90
2022-12-01T10:18:57.548Z,83.23
2022-12-01T10:21:59.722Z,77.67
2022-12-01T10:25:15.653Z,82.90
2022-12-01T10:28:27.179Z,81.57
2022-12-01T10:31:01.992Z,76.23
2022-12-01T10:33:49.028Z,78.03
2022-12-01T10:36:15.977Z,84.60
2022-12-01T10:38:42.879Z,88.37
2022-12-01T10:41:14.735Z,81.73
2022-12-01T10:43:46.555Z,86.97
2022-12-01T10:46:28.313Z,81.53
2022-12-01T10:48:57.680Z,92.53
2022-12-01T10:51:25.571Z,94.97
2022-12-01T10:54:11.511Z,79.40
2022-12-01T10:56:41.800Z,75.10
2022-12-01T10:59:53.257Z,70.67
2022-12-01T11:02:23.186Z,96.07
2022-12-01T11:05:02.509Z,75.40
2022-12-01T11:07:32.451Z,69.73
2022-12-01T11:10:32.899Z,79.83
2022-12-01T11:13:22.203Z,76.33
2022-12-01T11:16:00.551Z,73.40
2022-12-01T11:18:39.771Z,76.93
2022-12-01T11:21:16.866Z,70.13
2022-12-01T11:23:52.342Z,69.87
2022-12-01T11:26:25.235Z,65.03
2022-12-01T11:29:07.925Z,64.20
2022-12-01T11:31:49.770Z,66.60
2022-12-01T11:34:26.048Z,66.87
2022-12-01T11:37:06.618Z,72.37
2022-12-01T11:39:39.490Z,70.40
2022-12-01T11:42:12.365Z,72.20
2022-12-01T11:44:53.257Z,66.83
2022-12-01T11:47:24.829Z,69.80
2022-12-01T11:50:18.213Z,73.00
2022-12-01T11:52:48.340Z,70.13
2022-12-01T11:55:26.927Z,76.90
2022-12-01T11:57:58.005Z,79.33
2022-12-01T12:00:29.060Z,63.17
2022-12-01T12:03:25.615Z,72.37
2022-12-01T12:06:40.258Z,76.33
2022-12-01T12:09:28.363Z,69.80
2022-12-01T12:12:11.318Z,72.03
2022-12-01T12:15:28.699Z,69.87
2022-12-01T12:18:21.855Z,64.20
2022-12-01T12:21:27.772Z,62.40
2022-12-01T12:24:26.159Z,63.70
2022-12-01T12:27:28.793Z,68.57
2022-12-01T12:51:19.648Z,64.83
2022-12-01T12:54:08.660Z,66.70
2022-12-01T12:56:36.730Z,64.23
2022-12-01T12:59:11.659Z,59.80
2022-12-01T13:02:36.977Z,60.20
2022-12-01T13:05:25.360Z,66.70
2022-12-01T13:08:16.835Z,67.07
2022-12-01T13:11:23.204Z,69.83
2022-12-01T13:20:08.114Z,69.63
2022-12-01T13:22:36.589Z,71.53
2022-12-01T13:25:04.839Z,66.03
2022-12-01T13:27:38.767Z,69.03
2022-12-01T13:30:19.813Z,66.73
2022-12-01T13:32:48.041Z,73.67
2022-12-01T13:35:37.070Z,69.20
2022-12-01T13:41:29.622Z,66.23
2022-12-01T13:43:58.295Z,70.63
2022-12-01T13:46:32.810Z,69.83
2022-12-01T13:49:04.368Z,65.27
2022-12-01T13:52:09.907Z,71.70
2022-12-01T13:54:37.847Z,67.33
2022-12-01T13:57:14.051Z,64.10
2022-12-01T14:00:06.957Z,63.90
2022-12-01T14:02:35.654Z,67.10
2022-12-01T14:05:39.799Z,65.77
2022-12-01T14:08:30.865Z,62.53
2022-12-01T14:11:36.289Z,71.37
2022-12-01T14:14:24.371Z,73.80
2022-12-01T14:17:02.649Z,61.10
2022-12-01T14:19:42.182Z,64.67
2022-12-01T14:22:39.319Z,69.77
2022-12-01T14:25:32.753Z,66.77
2022-12-01T14:28:02.647Z,66.43
2022-12-01T14:30:42.313Z,69.67
2022-12-01T14:33:48.102Z,71.40
2022-12-01T14:36:38.102Z,64.60
2022-12-01T14:39:13.160Z,73.97
2022-12-01T14:42:10.821Z,70.73
2022-12-01T14:44:54.365Z,64.03
2022-12-01T14:47:30.103Z,64.77
2022-12-01T14:50:02.852Z,71.30
2022-12-01T14:52:38.425Z,74.33
2022-12-01T14:55:16.747Z,70.90
2022-12-01T14:57:53.148Z,66.27
2022-12-01T15:00:23.923Z,64.00
2022-12-01T15:03:01.472Z,63.27
2022-12-01T15:05:31.042Z,68.23
2022-12-01T15:08:18.539Z,59.53
2022-12-01T15:10:55.222Z,66.40
2022-12-01T15:13:30.628Z,62.10
2022-12-01T15:16:05.948Z,64.93
2022-12-01T15:18:35.442Z,58.13
2022-12-01T15:21:33.869Z,49.93
2022-12-01T15:24:22.227Z,58.67
2022-12-01T15:27:03.280Z,55.90
2022-12-01T15:29:33.115Z,59.67
2022-12-01T15:32:02.685Z,62.37
2022-12-01T15:34:33.669Z,57.30
2022-12-01T15:37:04.914Z,53.73
2022-12-01T15:40:11.988Z,52.00
2022-12-01T15:42:44.001Z,59.77
2022-12-01T15:45:22.596Z,54.90
2022-12-01T15:47:51.814Z,64.03
2022-12-01T15:50:44.540Z,55.33
2022-12-01T15:53:32.959Z,62.90
2022-12-01T15:56:02.176Z,60.67
2022-12-01T15:58:33.151Z,55.83
2022-12-01T16:01:10.593Z,62.03
2022-12-01T16:03:58.486Z,64.27
2022-12-01T16:06:29.183Z,58.30
2022-12-01T16:09:31.464Z,62.83
2022-12-01T16:12:22.794Z,56.13
2022-12-01T16:15:22.835Z,65.93
2022-12-01T16:17:52.636Z,65.07
2022-12-01T16:20:39.795Z,65.67
2022-12-01T16:23:15.533Z,61.57
2022-12-01T16:25:46.227Z,64.00
2022-12-01T16:28:32.014Z,60.43
2022-12-01T16:30:59.296Z,65.10
2022-12-01T16:33:28.107Z,63.60
2022-12-01T16:35:55.661Z,58.97
2022-12-01T16:38:25.140Z,60.07
2022-12-01T16:40:54.788Z,57.63
2022-12-01T16:43:24.118Z,72.97
2022-12-01T16:45:58.256Z,60.47
2022-12-01T16:48:25.363Z,63.70
2022-12-01T16:50:53.362Z,64.23
2022-12-01T16:53:20.398Z,61.97
2022-12-01T16:55:58.320Z,66.30
2022-12-01T16:58:25.475Z,61.33
2022-12-01T17:00:52.858Z,60.63
2022-12-01T17:03:22.428Z,62.03
2022-12-01T17:05:49.734Z,65.73
2022-12-01T17:08:17.587Z,73.83
2022-12-01T17:10:47.331Z,65.83
2022-12-01T17:13:14.563Z,65.80
2022-12-01T17:15:46.230Z,63.70
2022-12-01T17:18:14.969Z,60.03
2022-12-01T17:20:42.290Z,56.87
2022-12-01T17:23:09.249Z,57.60
2022-12-01T17:25:41.620Z,51.87
2022-12-01T17:28:08.518Z,42.53
2022-12-01T17:30:38.540Z,47.60
2022-12-01T17:33:05.810Z,48.40
2022-12-01T17:35:32.683Z,48.30
2022-12-01T17:37:59.781Z,50.93
2022-12-01T17:40:26.927Z,38.90
2022-12-01T17:42:53.870Z,42.17
2022-12-01T17:45:21.157Z,49.90
2022-12-01T17:47:48.170Z,46.00
2022-12-01T17:50:15.430Z,54.30
2022-12-01T17:52:42.503Z,59.07
2022-12-01T17:55:09.958Z,51.40
2022-12-01T17:57:38.488Z,51.00
2022-12-01T18:00:06.954Z,59.93
2022-12-01T18:02:34.140Z,49.47
2022-12-01T18:05:02.132Z,51.10
2022-12-01T18:07:34.947Z,48.47
2022-12-01T18:10:01.975Z,55.13
2022-12-01T18:12:28.955Z,54.93
2022-12-01T18:14:55.878Z,52.43
2022-12-01T18:17:22.783Z,66.70
2022-12-01T18:19:49.654Z,52.10
2022-12-01T18:22:16.581Z,58.30
2022-12-01T18:24:43.476Z,56.87
2022-12-01T18:27:10.339Z,59.30
2022-12-01T18:29:37.370Z,63.27
2022-12-01T18:32:06.921Z,62.30
2022-12-01T18:34:34.281Z,64.87
2022-12-01T18:37:06.026Z,56.53
2022-12-01T18:39:34.486Z,53.50
2022-12-01T18:42:02.785Z,55.97
2022-12-01T18:44:31.114Z,63.37
2022-12-01T18:46:59.212Z,58.20
2022-12-01T18:49:26.214Z,54.80
2022-12-01T18:51:54.347Z,63.37
2022-12-01T18:54:21.474Z,53.43
2022-12-01T18:56:52.826Z,60.23
2022-12-01T18:59:20.123Z,52.93
2022-12-01T19:01:48.609Z,62.07
2022-12-01T19:04:16.809Z,69.00
2022-12-01T19:06:45.787Z,60.63
2022-12-01T19:09:15.731Z,69.70
2022-12-01T19:11:43.946Z,62.33
2022-12-01T19:14:17.238Z,65.27
2022-12-01T19:16:47.468Z,63.43
2022-12-01T19:19:15.161Z,64.83
2022-12-01T19:21:43.014Z,63.47
2022-12-01T19:24:10.050Z,59.70
2022-12-01T19:26:38.109Z,64.07
2022-12-01T19:29:05.254Z,60.17
2022-12-01T19:31:35.223Z,64.10
2022-12-01T19:34:05.226Z,67.47
2022-12-01T19:36:33.800Z,62.47
2022-12-01T19:39:04.466Z,62.27
2022-12-01T19:41:34.917Z,65.17
2022-12-01T19:44:03.809Z,65.57
2022-12-01T19:46:30.963Z,61.43
2022-12-01T19:49:03.342Z,64.47
2022-12-01T19:51:36.223Z,70.57
2022-12-01T19:54:08.741Z,66.57
2022-12-01T19:56:35.860Z,60.90
2022-12-01T19:59:02.932Z,67.00
2022-12-01T20:01:30.325Z,64.73
2022-12-01T20:03:57.440Z,64.07
2022-12-01T20:06:28.161Z,58.03
2022-12-01T20:08:58.681Z,61.70
2022-12-01T20:11:27.180Z,60.97
2022-12-01T20:13:55.164Z,65.10
2022-12-01T20:16:24.967Z,63.60
2022-12-01T20:18:57.123Z,58.10
2022-12-01T20:21:28.639Z,60.27
2022-12-01T20:24:01.176Z,59.03
2022-12-01T20:26:35.559Z,54.93
2022-12-01T20:29:10.146Z,58.83
2022-12-01T20:31:46.145Z,65.13
2022-12-01T20:34:21.406Z,62.90
2022-12-01T20:36:49.045Z,66.93
2022-12-01T20:39:16.691Z,59.73
2022-12-01T20:41:45.295Z,57.50
2022-12-01T20:44:13.956Z,66.60
2022-12-01T20:46:41.962Z,58.60
2022-12-01T20:49:09.612Z,59.73
2022-12-01T20:51:39.849Z,65.63
2022-12-01T20:54:28.676Z,66.23
2022-12-01T20:56:57.398Z,66.40
2022-12-01T20:59:24.622Z,66.90
2022-12-01T21:01:51.681Z,60.03
2022-12-01T21:04:18.967Z,65.47
2022-12-01T21:06:46.692Z,68.73
2022-12-01T21:09:15.574Z,62.60
2022-12-01T21:12:21.552Z,62.67
2022-12-01T21:14:58.087Z,58.10
2022-12-01T21:17:47.349Z,56.60
2022-12-01T21:20:37.398Z,65.60
2022-12-01T21:23:17.021Z,55.50
2022-12-01T21:25:44.950Z,45.97
2022-12-01T21:28:22.470Z,47.47
2022-12-01T21:30:57.422Z,48.53
2022-12-01T21:33:36.559Z,48.97
2022-12-01T21:36:16.476Z,43.53
2022-12-01T21:38:44.325Z,53.67
2022-12-01T21:41:31.835Z,63.87
2022-12-01T21:44:11.339Z,46.23
2022-12-01T21:46:41.545Z,49.37
2022-12-01T21:49:28.844Z,60.20
2022-12-01T21:51:55.852Z,44.23
2022-12-01T21:54:24.109Z,46.83
2022-12-01T21:57:00.175Z,66.33
2022-12-01T21:59:28.290Z,45.67
2022-12-01T22:01:57.121Z,55.73
2022-12-01T22:04:30.430Z,56.83
2022-12-01T22:06:58.902Z,69.43
2022-12-01T22:09:29.579Z,50.23
2022-12-01T22:12:00.050Z,49.73
2022-12-01T22:14:35.148Z,42.00
2022-12-01T22:17:24.011Z,45.00
2022-12-01T22:20:02.550Z,44.13
2022-12-01T22:22:30.875Z,45.63
2022-12-01T22:25:19.125Z,48.87
2022-12-01T22:27:46.083Z,45.63
2022-12-01T22:30:21.715Z,39.73
2022-12-01T22:32:52.264Z,54.33
2022-12-01T22:35:42.481Z,44.40
2022-12-01T22:38:38.490Z,52.53
2022-12-01T22:41:16.650Z,58.43
2022-12-01T22:44:05.297Z,59.50
2022-12-01T22:46:34.585Z,55.70
2022-12-01T22:49:22.247Z,62.53
2022-12-01T22:51:51.018Z,64.27
2022-12-01T22:54:29.783Z,67.53
2022-12-01T22:57:11.515Z,68.07
2022-12-01T22:59:42.785Z,67.90
2022-12-01T23:02:21.962Z,71.23
2022-12-01T23:04:59.972Z,69.50
2022-12-01T23:07:43.040Z,76.63
2022-12-01T23:10:17.958Z,71.33
2022-12-01T23:12:46.820Z,64.67
2022-12-01T23:15:46.310Z,70.80
2022-12-01T23:18:22.494Z,65.47
2022-12-01T23:20:54.539Z,71.40
2022-12-01T23:23:31.057Z,76.40
2022-12-01T23:26:00.941Z,70.50
2022-12-01T23:28:30.504Z,73.93
2022-12-01T23:30:59.889Z,72.53
2022-12-01T23:33:29.780Z,80.13
2022-12-01T23:36:24.900Z,81.23
2022-12-01T23:39:04.748Z,74.47
2022-12-01T23:41:39.852Z,78.17
2022-12-01T23:44:21.683Z,82.80
2022-12-01T23:46:52.956Z,73.00
2022-12-01T23:49:24.428Z,74.30
2022-12-01T23:51:54.953Z,79.60
2022-12-01T23:54:25.467Z,72.80
2022-12-01T23:56:54.907Z,77.93
2022-12-01T23:59:22.717Z,75.27
